Latest Weather Observations for Leonora Airport

IDW60801

Issued at 12:32 pm WST Friday 19 December 2014 (issued every 30 minutes, with the page automatically refreshed every 10 minutes)

About weather observations | Map of weather stations | Latest weather observations for WA | Other Formats
Station Details ID: 012241 Name: LEONORA AERO Lat: -28.88 Lon: 121.32 Height: 370.0 m
Data from the previous 72 hours. | See also: Recent months for locations in Western Australia
Date/Time
WST
Temp
°C
App
Temp
°C
Dew
Point
Rel
Hum
%
Delta-T
°C
Wind Press
QNH
hPa
Press
MSL
hPa
Rain
since 9 am
mm
Dir
 
Spd
km/h
Gust
km/h
Spd
kts
Gust
kts
19/12:30pm 34.9 30.6 9.3 21 14.9 E 22 33 12 18 1013.1 1010.6 0.0
19/12:00pm 35.3 30.3 9.7 21 15.0 E 26 39 14 21 1013.8 1011.4 0.0
19/11:30am 33.9 29.2 10.5 24 13.8 ENE 26 35 14 19 1014.3 1011.9 0.0
19/11:00am 32.7 27.9 8.9 23 13.6 NE 24 33 13 18 1014.8 1012.4 0.0
19/10:30am 33.2 28.3 8.6 22 14.0 ENE 24 39 13 21 1015.3 1012.9 0.0
19/10:00am 32.4 27.5 8.6 23 13.5 E 24 32 13 17 1015.6 1013.1 0.0
19/09:30am 30.9 25.3 8.6 25 12.6 E 28 37 15 20 1016.0 1013.5 0.0
19/09:00am 30.0 25.3 7.8 25 12.3 ENE 22 30 12 16 1016.2 1013.8 0.0
19/08:30am 29.0 23.9 7.6 26 11.8 E 24 33 13 18 1016.4 1014.0 0.0
19/08:00am 27.8 21.8 7.1 27 11.2 E 28 37 15 20 1016.6 1014.2 0.0
19/07:30am 26.3 20.6 6.9 29 10.4 E 26 35 14 19 1016.5 1014.1 0.0
19/07:00am 25.3 19.9 6.5 30 9.9 E 24 32 13 17 1016.5 1014.1 0.0
19/06:30am 24.4 18.7 6.6 32 9.4 E 26 35 14 19 1016.4 1014.0 0.0
19/06:00am 23.9 18.8 6.2 32 9.2 ESE 22 32 12 17 1016.2 1013.8 0.0
19/05:30am 23.4 18.6 5.8 32 9.1 E 20 28 11 15 1015.9 1013.4 0.0
19/05:00am 23.3 18.4 5.2 31 9.2 ESE 20 28 11 15 1015.5 1013.0 0.0
19/04:30am 24.0 17.4 4.4 28 9.9 E 28 43 15 23 1014.8 1012.4 0.0
19/04:00am 24.8 18.6 4.5 27 10.3 ESE 26 35 14 19 1014.3 1011.9 0.0
19/03:30am 25.6 19.9 4.7 26 10.7 E 24 39 13 21 1013.9 1011.5 0.0
19/03:00am 26.0 19.6 5.0 26 10.9 E 28 39 15 21 1013.6 1011.2 0.0
19/02:30am 26.3 20.6 4.7 25 11.1 E 24 32 13 17 1013.5 1011.0 0.0
19/02:00am 26.7 20.7 5.1 25 11.2 E 26 41 14 22 1013.3 1010.8 0.0
19/01:30am 27.1 21.0 4.8 24 11.6 E 26 35 14 19 1013.4 1010.9 0.0
19/01:00am 27.5 21.1 5.1 24 11.7 E 28 39 15 21 1013.4 1010.9 0.0
19/12:30am 27.8 21.8 5.4 24 11.8 E 26 37 14 20 1013.5 1011.0 0.0
19/12:00am 28.1 22.4 5.0 23 12.1 ESE 24 37 13 20 1013.8 1011.4 0.0
 
Date/Time
WST
Temp
°C
App
Temp
°C
Dew
Point
Rel
Hum
%
Delta-T
°C
Wind Press
QNH
hPa
Press
MSL
hPa
Rain
since 9 am
mm
Dir
 
Spd
km/h
Gust
km/h
Spd
kts
Gust
kts
18/11:30pm 28.7 22.6 4.9 22 12.5 ESE 26 39 14 21 1013.8 1011.4 0.0
18/11:00pm 29.1 23.5 5.2 22 12.6 ESE 24 35 13 19 1013.9 1011.5 0.0
18/10:30pm 29.7 24.0 5.1 21 13.0 ESE 24 32 13 17 1013.9 1011.5 0.0
18/10:00pm 30.1 25.3 5.4 21 13.2 ESE 20 32 11 17 1013.9 1011.5 0.0
18/09:30pm 30.4 25.5 4.9 20 13.5 ESE 20 32 11 17 1013.8 1011.4 0.0
18/09:00pm 30.6 26.4 5.8 21 13.3 ESE 17 20 9 11 1013.6 1011.2 0.0
18/08:30pm 31.0 26.7 5.4 20 13.7 ESE 17 20 9 11 1013.2 1010.7 0.0
18/08:00pm 31.6 27.3 5.2 19 14.1 ESE 17 24 9 13 1012.9 1010.4 0.0
18/07:30pm 32.0 27.2 4.7 18 14.5 ESE 19 26 10 14 1012.6 1010.1 0.0
18/07:00pm 32.5 27.6 5.1 18 14.7 ESE 20 26 11 14 1012.1 1009.7 0.0
18/06:30pm 33.2 27.9 4.9 17 15.2 E 22 33 12 18 1011.9 1009.5 0.0
18/06:00pm 33.8 29.0 5.4 17 15.5 ESE 20 33 11 18 1011.7 1009.3 0.0
18/05:30pm 34.4 29.5 5.0 16 15.9 ESE 20 30 11 16 1011.5 1009.1 0.0
18/05:00pm 34.3 30.1 5.8 17 15.6 ESE 17 26 9 14 1011.4 1009.0 0.0
18/04:30pm 34.2 29.4 5.7 17 15.6 ESE 20 33 11 18 1011.5 1009.1 0.0
18/04:00pm 34.5 29.8 5.9 17 15.7 E 20 30 11 16 1011.6 1009.2 0.0
18/03:30pm 34.9 30.2 6.2 17 15.9 ESE 20 28 11 15 1011.8 1009.4 0.0
18/03:00pm 33.8 29.1 6.2 18 15.2 ESE 20 35 11 19 1012.0 1009.6 0.0
18/02:30pm 34.0 28.8 5.5 17 15.5 ESE 22 33 12 18 1012.4 1010.0 0.0
18/02:00pm 33.1 28.1 6.4 19 14.7 E 22 32 12 17 1012.9 1010.4 0.0
18/01:30pm 32.1 26.8 7.0 21 13.9 ESE 24 33 13 18 1013.2 1010.7 0.0
18/01:00pm 32.0 26.5 7.6 22 13.6 ESE 26 35 14 19 1013.4 1010.9 0.0
18/12:30pm 30.8 25.2 7.3 23 13.0 ESE 26 39 14 21 1013.9 1011.5 0.0
18/12:00pm 29.3 23.3 7.2 25 12.1 ESE 28 37 15 20 1014.2 1011.8 0.0
18/11:30am 28.7 23.5 7.3 26 11.7 ESE 24 39 13 21 1014.7 1012.3 0.0
18/11:00am 27.6 22.1 7.5 28 10.9 ESE 26 37 14 20 1015.0 1012.6 0.0
18/10:30am 26.8 21.7 7.8 30 10.4 SE 24 41 13 22 1015.5 1013.0 0.0
18/10:00am 25.1 19.6 7.7 33 9.4 ESE 26 39 14 21 1015.8 1013.3 0.0
18/09:30am 25.1 19.3 8.1 34 9.2 ESE 28 43 15 23 1016.1 1013.7 0.0
18/09:00am 23.6 18.1 7.7 36 8.5 ESE 26 39 14 21 1016.3 1013.9 0.0
18/08:30am 22.6 17.3 8.3 40 7.7 ESE 26 35 14 19 1016.3 1013.9 0.0
18/08:00am 21.2 15.8 8.1 43 7.0 ESE 26 39 14 21 1016.4 1014.0 0.0
18/07:30am 20.1 14.3 8.1 46 6.3 ESE 28 37 15 20 1016.2 1013.8 0.0
18/07:00am 19.5 13.1 8.5 49 5.8 ESE 32 43 17 23 1015.9 1013.4 0.0
18/06:30am 18.5 12.6 9.0 54 5.1 ESE 30 39 16 21 1015.2 1012.8 0.0
18/06:00am 18.1 12.6 9.2 56 4.7 SE 28 43 15 23 1014.7 1012.3 0.0
18/05:30am 17.8 12.4 9.4 58 4.5 SE 28 43 15 23 1014.3 1011.9 0.0
18/05:00am 17.9 12.6 10.0 60 4.3 SE 28 41 15 22 1013.7 1011.3 0.0
18/04:30am 18.6 13.8 10.4 59 4.5 SE 26 41 14 22 1013.2 1010.7 0.0
18/04:00am 19.1 13.9 10.4 57 4.8 SE 28 43 15 23 1012.9 1010.4 0.0
18/03:30am 19.9 14.7 10.3 54 5.3 SE 28 39 15 21 1012.6 1010.1 0.0
18/03:00am 20.9 15.2 9.8 49 6.1 SE 30 43 16 23 1012.0 1009.6 0.0
18/02:30am 21.8 15.5 9.7 46 6.6 ESE 33 50 18 27 1011.6 1009.2 0.0
18/02:00am 22.7 17.3 9.5 43 7.3 SE 28 39 15 21 1011.1 1008.6 0.0
18/01:46am 23.1 17.2 9.1 41 7.7 SE 30 50 16 27 1010.8 1008.3 0.0
18/01:30am 23.3 17.0 9.0 40 7.8 SE 32 48 17 26 1010.6 1008.1 0.0
18/01:00am 25.5 18.8 5.7 28 10.3 SE 30 50 16 27 1010.0 1007.5 0.0
18/12:56am 25.7 18.6 5.3 27 10.6 SE 32 50 17 27 1009.9 1007.4 0.0
18/12:30am 26.5 19.3 1.0 19 12.3 SE 28 44 15 24 1009.6 1007.2 0.0
18/12:27am 26.6 19.5 1.1 19 12.3 SE 28 46 15 25 1009.6 1007.2 0.0
18/12:00am 27.1 20.9 0.0 17 12.9 SE 22 35 12 19 1009.4 1007.0 0.0
 
Date/Time
WST
Temp
°C
App
Temp
°C
Dew
Point
Rel
Hum
%
Delta-T
°C
Wind Press
QNH
hPa
Press
MSL
hPa
Rain
since 9 am
mm
Dir
 
Spd
km/h
Gust
km/h
Spd
kts
Gust
kts
17/11:30pm 27.8 21.7 0.5 17 13.2 SSE 22 30 12 16 1009.1 1006.7 0.0
17/11:00pm 28.2 22.7 0.9 17 13.3 SE 19 28 10 15 1009.1 1006.7 0.0
17/10:30pm 28.8 23.2 1.3 17 13.6 SE 20 28 11 15 1009.0 1006.6 0.0
17/10:00pm 29.5 23.6 1.9 17 13.8 SSE 22 35 12 19 1008.7 1006.3 0.0
17/09:30pm 30.4 23.6 0.9 15 14.6 SSE 26 39 14 21 1008.3 1005.8 0.0
17/09:22pm 30.7 23.4 0.2 14 14.9 SSE 28 39 15 21 1008.2 1005.7 0.0
17/09:00pm 30.8 25.4 -4.3 10 16.0 S 15 20 8 11 1007.8 1005.3 0.0
17/08:30pm 30.9 25.8 -5.6 9 16.2 S 13 19 7 10 1007.5 1005.0 0.0
17/08:00pm 31.3 26.4 -6.8 8 16.7 S 11 15 6 8 1007.1 1004.6 0.0
17/07:30pm 32.2 27.2 -7.9 7 17.3 SSW 11 17 6 9 1006.5 1004.1 0.0
17/07:00pm 33.5 28.6 -7.0 7 18.0 SSW 11 20 6 11 1006.1 1003.6 0.0
17/06:30pm 34.9 28.2 -8.0 6 18.9 SSW 20 26 11 14 1005.7 1003.2 0.0
17/06:00pm 35.7 29.1 -7.4 6 19.4 SSW 20 32 11 17 1005.3 1002.8 0.0
17/05:30pm 36.0 28.6 -7.2 6 19.5 SSW 24 35 13 19 1004.9 1002.4 0.0
17/05:00pm 37.3 31.7 -6.3 6 20.2 SW 15 28 8 15 1004.5 1002.0 0.0
17/04:30pm 37.4 31.2 -8.5 5 20.5 SW 17 28 9 15 1004.2 1001.7 0.0
17/04:00pm 37.5 29.6 -8.5 5 20.6 W 26 41 14 22 1004.2 1001.7 0.0
17/03:30pm 37.6 31.7 -6.0 6 20.3 SW 17 35 9 19 1004.1 1001.6 0.0
17/03:00pm 37.7 30.7 -3.9 7 20.1 SW 24 37 13 20 1004.5 1002.0 0.0
17/02:30pm 37.9 31.2 -3.8 7 20.1 WSW 22 41 12 22 1004.5 1002.0 0.0
17/02:07pm 37.6 32.0 -6.0 6 20.3 WSW 15 39 8 21 1004.7 1002.2 0.0
17/02:00pm 36.8 30.6 -4.6 7 19.6 WSW 19 32 10 17 1004.7 1002.2 0.0
17/01:30pm 36.6 30.4 -4.7 7 19.4 SW 19 39 10 21 1004.9 1002.4 0.0
17/01:00pm 37.3 28.7 -4.2 7 19.9 W 32 43 17 23 1005.0 1002.5 0.0
17/12:30pm 37.7 31.8 -2.2 8 19.7 W 19 32 10 17 1005.2 1002.7 0.0
17/12:00pm 36.5 31.7 0.0 10 18.6 WSW 15 24 8 13 1005.3 1002.8 0.0
17/11:30am 34.7 29.8 2.3 13 16.8 W 17 26 9 14 1005.8 1003.3 0.0
17/11:00am 34.3 29.6 3.0 14 16.5 SW 17 24 9 13 1006.2 1003.7 0.0
17/10:30am 33.0 28.4 3.9 16 15.4 WSW 17 26 9 14 1006.4 1004.0 0.0
17/10:00am 31.7 28.8 4.5 18 14.4 SW 9 19 5 10 1006.6 1004.2 0.0
17/09:30am 31.2 27.4 4.1 18 14.2 SSW 13 19 7 10 1006.6 1004.2 0.0
17/09:00am 31.7 29.2 4.5 18 14.4 SW 7 13 4 7 1006.6 1004.2 0.0
17/08:30am 30.2 28.3 4.8 20 13.4 SW 4 7 2 4 1006.7 1004.3 0.0
17/08:00am 29.2 27.2 4.6 21 12.9 E 4 9 2 5 1006.9 1004.4 0.0
17/07:30am 27.7 24.7 4.1 22 12.1 ESE 9 13 5 7 1007.0 1004.5 0.0
17/07:00am 26.6 23.2 3.8 23 11.6 ESE 11 19 6 10 1006.9 1004.4 0.0
17/06:30am 26.1 22.6 3.4 23 11.4 ESE 11 15 6 8 1006.4 1004.0 0.0
17/06:00am 24.9 20.9 3.0 24 10.9 SE 13 19 7 10 1006.2 1003.7 0.0
17/05:30am 24.0 20.4 2.8 25 10.4 SE 11 15 6 8 1005.8 1003.3 0.0
17/05:00am 23.7 19.7 3.1 26 10.2 SE 13 17 7 9 1005.6 1003.1 0.0
17/04:30am 23.8 20.5 2.6 25 10.3 SE 9 15 5 8 1005.3 1002.8 0.0
17/04:00am 23.1 19.8 2.6 26 10.0 SE 9 15 5 8 1005.2 1002.7 0.0
17/03:30am 23.2 19.5 2.1 25 10.2 SE 11 13 6 7 1005.0 1002.5 0.0
17/03:00am 23.6 19.4 1.9 24 10.5 SE 13 15 7 8 1005.0 1002.5 0.0
17/02:30am 23.9 20.1 1.5 23 10.7 ESE 11 15 6 8 1005.1 1002.6 0.0
17/02:00am 24.3 20.4 1.2 22 11.1 SSE 11 15 6 8 1005.3 1002.8 0.0
17/01:30am 25.0 21.5 1.2 21 11.4 SE 9 11 5 6 1005.6 1003.1 0.0
17/01:00am 25.6 22.1 1.0 20 11.8 ESE 9 13 5 7 1006.0 1003.5 0.0
17/12:30am 25.9 21.5 0.5 19 12.1 ESE 13 15 7 8 1006.3 1003.9 0.0
17/12:00am 26.5 21.8 1.0 19 12.3 ESE 15 20 8 11 1006.6 1004.2 0.0
 
Date/Time
WST
Temp
°C
App
Temp
°C
Dew
Point
Rel
Hum
%
Delta-T
°C
Wind Press
QNH
hPa
Press
MSL
hPa
Rain
since 9 am
mm
Dir
 
Spd
km/h
Gust
km/h
Spd
kts
Gust
kts
16/11:30pm 26.8 22.2 1.3 19 12.4 ESE 15 20 8 11 1006.9 1004.4 0.0
16/11:00pm 27.3 21.8 1.7 19 12.6 ESE 20 26 11 14 1007.0 1004.5 0.0
16/10:30pm 27.7 22.3 1.2 18 12.9 ESE 19 24 10 13 1007.3 1004.8 0.0
16/10:00pm 28.0 23.4 1.5 18 13.1 ESE 15 20 8 11 1007.4 1004.9 0.0
16/09:30pm 28.6 23.9 1.2 17 13.5 ESE 15 22 8 12 1007.5 1005.0 0.0
16/09:00pm 29.3 24.1 0.0 15 14.2 SE 17 20 9 11 1007.4 1004.9 0.0
16/08:30pm 29.0 27.0 -0.2 15 14.0 CALM 0 0 0 0 1007.1 1004.6 0.0
16/08:00pm 29.5 27.4 -0.8 14 14.5 CALM 0 0 0 0 1007.1 1004.6 0.0
16/07:30pm 31.1 28.9 -1.6 12 15.6 CALM 0 0 0 0 1007.1 1004.6 0.0
16/07:00pm 32.5 28.6 -1.7 11 16.5 W 9 13 5 7 1007.0 1004.5 0.0
16/06:30pm 33.3 28.5 -2.4 10 17.0 WNW 13 19 7 10 1006.7 1004.3 0.0
16/06:00pm 34.0 30.6 -1.9 10 17.4 NW 6 13 3 7 1006.7 1004.3 0.0
16/05:30pm 33.9 29.8 -3.4 9 17.6 W 9 20 5 11 1006.5 1004.1 0.0
16/05:00pm 34.0 29.5 -3.3 9 17.7 NNW 11 20 6 11 1006.7 1004.3 0.0
16/04:30pm 34.1 31.7 -0.5 11 17.1 ENE 2 7 1 4 1006.9 1004.4 0.0
16/04:00pm 33.3 30.0 0.1 12 16.6 NNW 7 13 4 7 1007.1 1004.6 0.0
16/03:30pm 33.4 30.1 0.1 12 16.6 S 7 15 4 8 1007.6 1005.1 0.0
16/03:00pm 32.3 29.2 0.4 13 15.9 SSE 6 9 3 5 1008.1 1005.6 0.0
16/02:30pm 32.4 29.5 1.5 14 15.6 SSW 6 15 3 8 1008.5 1006.0 0.0
16/02:00pm 31.9 28.8 1.1 14 15.5 N 7 15 4 8 1009.0 1006.6 0.0
16/01:30pm 30.9 26.8 2.2 16 14.6 W 13 17 7 9 1009.4 1007.0 0.0
16/01:00pm 29.9 26.3 3.0 18 13.8 ESE 11 19 6 10 1010.1 1007.6 0.0

Other Formats:

Comma delimited format used in spreadsheet applications
http://www.bom.gov.au/fwo/IDW60801/IDW60801.94450.axf

JavaScript Object Notation format (JSON) in row-major order
http://www.bom.gov.au/fwo/IDW60801/IDW60801.94450.json